sensor_id;sensor_type;location;lat;lon;timestamp;P1;durP1;ratioP1;P2;durP2;ratioP2
11305;SDS011;5708;50.660;6.778;2023-05-28T00:01:44;14.07;;;7.10;;
11305;SDS011;5708;50.660;6.778;2023-05-28T00:04:09;19.48;;;7.22;;
11305;SDS011;5708;50.660;6.778;2023-05-28T00:06:35;16.38;;;7.43;;
11305;SDS011;5708;50.660;6.778;2023-05-28T00:09:00;12.13;;;6.45;;
11305;SDS011;5708;50.660;6.778;2023-05-28T00:11:25;13.73;;;7.05;;
11305;SDS011;5708;50.660;6.778;2023-05-28T00:13:51;13.43;;;6.45;;
11305;SDS011;5708;50.660;6.778;2023-05-28T00:16:16;16.40;;;6.63;;
11305;SDS011;5708;50.660;6.778;2023-05-28T00:18:41;15.07;;;6.50;;
11305;SDS011;5708;50.660;6.778;2023-05-28T00:21:07;12.48;;;7.10;;
11305;SDS011;5708;50.660;6.778;2023-05-28T00:23:32;17.77;;;6.90;;
11305;SDS011;5708;50.660;6.778;2023-05-28T00:25:57;13.35;;;6.90;;
11305;SDS011;5708;50.660;6.778;2023-05-28T00:28:23;17.38;;;7.60;;
11305;SDS011;5708;50.660;6.778;2023-05-28T00:30:48;16.05;;;7.03;;
11305;SDS011;5708;50.660;6.778;2023-05-28T00:33:14;21.35;;;7.40;;
11305;SDS011;5708;50.660;6.778;2023-05-28T00:35:39;17.63;;;7.25;;
11305;SDS011;5708;50.660;6.778;2023-05-28T00:38:04;11.40;;;6.63;;
11305;SDS011;5708;50.660;6.778;2023-05-28T00:40:30;14.70;;;6.95;;
11305;SDS011;5708;50.660;6.778;2023-05-28T00:42:55;16.70;;;7.43;;
11305;SDS011;5708;50.660;6.778;2023-05-28T00:45:20;12.75;;;6.75;;
11305;SDS011;5708;50.660;6.778;2023-05-28T00:47:46;13.18;;;6.63;;
11305;SDS011;5708;50.660;6.778;2023-05-28T00:50:12;14.60;;;6.82;;
11305;SDS011;5708;50.660;6.778;2023-05-28T00:52:38;16.88;;;6.65;;
11305;SDS011;5708;50.660;6.778;2023-05-28T00:55:05;15.20;;;6.68;;
11305;SDS011;5708;50.660;6.778;2023-05-28T00:57:38;14.25;;;6.50;;
11305;SDS011;5708;50.660;6.778;2023-05-28T01:00:03;13.07;;;6.25;;
11305;SDS011;5708;50.660;6.778;2023-05-28T01:02:29;12.82;;;6.70;;
11305;SDS011;5708;50.660;6.778;2023-05-28T01:04:55;14.88;;;6.68;;
11305;SDS011;5708;50.660;6.778;2023-05-28T01:07:20;12.88;;;6.13;;
11305;SDS011;5708;50.660;6.778;2023-05-28T01:09:45;13.20;;;6.50;;
11305;SDS011;5708;50.660;6.778;2023-05-28T01:12:11;13.82;;;6.63;;
11305;SDS011;5708;50.660;6.778;2023-05-28T01:14:37;13.75;;;5.90;;
11305;SDS011;5708;50.660;6.778;2023-05-28T01:17:03;16.52;;;6.45;;
11305;SDS011;5708;50.660;6.778;2023-05-28T01:19:30;13.13;;;6.50;;
11305;SDS011;5708;50.660;6.778;2023-05-28T01:21:58;16.40;;;6.43;;
11305;SDS011;5708;50.660;6.778;2023-05-28T01:24:27;13.63;;;6.70;;
11305;SDS011;5708;50.660;6.778;2023-05-28T01:26:54;15.07;;;6.65;;
11305;SDS011;5708;50.660;6.778;2023-05-28T01:29:20;15.32;;;7.10;;
11305;SDS011;5708;50.660;6.778;2023-05-28T01:31:46;12.15;;;6.15;;
11305;SDS011;5708;50.660;6.778;2023-05-28T01:34:12;15.73;;;7.10;;
11305;SDS011;5708;50.660;6.778;2023-05-28T01:36:45;16.40;;;6.47;;
11305;SDS011;5708;50.660;6.778;2023-05-28T01:39:15;10.27;;;5.97;;
11305;SDS011;5708;50.660;6.778;2023-05-28T01:41:44;14.95;;;6.65;;
11305;SDS011;5708;50.660;6.778;2023-05-28T01:44:11;13.90;;;6.25;;
11305;SDS011;5708;50.660;6.778;2023-05-28T01:46:38;15.25;;;6.68;;
11305;SDS011;5708;50.660;6.778;2023-05-28T01:49:04;15.55;;;6.70;;
11305;SDS011;5708;50.660;6.778;2023-05-28T01:51:29;13.65;;;6.60;;
11305;SDS011;5708;50.660;6.778;2023-05-28T01:53:56;18.90;;;6.38;;
11305;SDS011;5708;50.660;6.778;2023-05-28T01:56:21;12.23;;;6.88;;
11305;SDS011;5708;50.660;6.778;2023-05-28T01:58:46;11.10;;;6.18;;
11305;SDS011;5708;50.660;6.778;2023-05-28T02:01:17;15.80;;;7.07;;
11305;SDS011;5708;50.660;6.778;2023-05-28T02:03:48;13.25;;;6.53;;
11305;SDS011;5708;50.660;6.778;2023-05-28T02:06:14;13.43;;;7.13;;
11305;SDS011;5708;50.660;6.778;2023-05-28T02:08:39;14.82;;;6.47;;
11305;SDS011;5708;50.660;6.778;2023-05-28T02:11:04;15.40;;;6.60;;
11305;SDS011;5708;50.660;6.778;2023-05-28T02:13:30;12.85;;;6.30;;
11305;SDS011;5708;50.660;6.778;2023-05-28T02:15:56;16.27;;;6.32;;
11305;SDS011;5708;50.660;6.778;2023-05-28T02:18:22;11.80;;;6.30;;
11305;SDS011;5708;50.660;6.778;2023-05-28T02:20:47;15.48;;;6.68;;
11305;SDS011;5708;50.660;6.778;2023-05-28T02:23:13;13.45;;;6.45;;
11305;SDS011;5708;50.660;6.778;2023-05-28T02:25:38;15.25;;;6.53;;
11305;SDS011;5708;50.660;6.778;2023-05-28T02:28:06;13.40;;;6.35;;
11305;SDS011;5708;50.660;6.778;2023-05-28T02:30:32;14.13;;;6.80;;
11305;SDS011;5708;50.660;6.778;2023-05-28T02:32:57;14.70;;;6.38;;
11305;SDS011;5708;50.660;6.778;2023-05-28T02:35:23;14.20;;;6.88;;
11305;SDS011;5708;50.660;6.778;2023-05-28T02:37:48;14.73;;;6.90;;
11305;SDS011;5708;50.660;6.778;2023-05-28T02:40:14;15.18;;;6.53;;
11305;SDS011;5708;50.660;6.778;2023-05-28T02:42:40;13.15;;;6.38;;
11305;SDS011;5708;50.660;6.778;2023-05-28T02:45:05;12.30;;;6.13;;
11305;SDS011;5708;50.660;6.778;2023-05-28T02:47:31;12.13;;;6.75;;
11305;SDS011;5708;50.660;6.778;2023-05-28T02:49:57;14.32;;;6.90;;
11305;SDS011;5708;50.660;6.778;2023-05-28T02:52:22;15.30;;;7.13;;
11305;SDS011;5708;50.660;6.778;2023-05-28T02:54:50;15.35;;;6.82;;
11305;SDS011;5708;50.660;6.778;2023-05-28T02:57:16;14.55;;;6.65;;
11305;SDS011;5708;50.660;6.778;2023-05-28T02:59:41;14.73;;;6.40;;
11305;SDS011;5708;50.660;6.778;2023-05-28T03:02:06;16.02;;;7.03;;
11305;SDS011;5708;50.660;6.778;2023-05-28T03:04:32;13.32;;;6.65;;
11305;SDS011;5708;50.660;6.778;2023-05-28T03:06:57;12.70;;;6.75;;
11305;SDS011;5708;50.660;6.778;2023-05-28T03:09:23;14.60;;;6.65;;
11305;SDS011;5708;50.660;6.778;2023-05-28T03:11:48;14.70;;;6.53;;
11305;SDS011;5708;50.660;6.778;2023-05-28T03:14:13;16.17;;;6.75;;
11305;SDS011;5708;50.660;6.778;2023-05-28T03:16:39;12.45;;;6.85;;
11305;SDS011;5708;50.660;6.778;2023-05-28T03:19:04;14.13;;;6.43;;
11305;SDS011;5708;50.660;6.778;2023-05-28T03:21:29;13.55;;;6.65;;
11305;SDS011;5708;50.660;6.778;2023-05-28T03:23:55;13.30;;;7.22;;
11305;SDS011;5708;50.660;6.778;2023-05-28T03:26:20;18.23;;;7.85;;
11305;SDS011;5708;50.660;6.778;2023-05-28T03:28:49;23.13;;;8.20;;
11305;SDS011;5708;50.660;6.778;2023-05-28T03:31:15;15.07;;;7.78;;
11305;SDS011;5708;50.660;6.778;2023-05-28T03:33:40;13.38;;;7.22;;
11305;SDS011;5708;50.660;6.778;2023-05-28T03:36:06;14.85;;;7.30;;
11305;SDS011;5708;50.660;6.778;2023-05-28T03:38:32;13.77;;;7.75;;
11305;SDS011;5708;50.660;6.778;2023-05-28T03:40:57;17.10;;;8.05;;
11305;SDS011;5708;50.660;6.778;2023-05-28T03:43:23;15.93;;;7.70;;
11305;SDS011;5708;50.660;6.778;2023-05-28T03:45:48;13.63;;;7.32;;
11305;SDS011;5708;50.660;6.778;2023-05-28T03:48:13;16.88;;;7.38;;
11305;SDS011;5708;50.660;6.778;2023-05-28T03:50:39;13.30;;;6.88;;
11305;SDS011;5708;50.660;6.778;2023-05-28T03:53:04;15.25;;;7.32;;
11305;SDS011;5708;50.660;6.778;2023-05-28T03:55:31;14.32;;;7.40;;
11305;SDS011;5708;50.660;6.778;2023-05-28T03:57:56;14.88;;;6.50;;
11305;SDS011;5708;50.660;6.778;2023-05-28T04:00:21;12.40;;;6.85;;
11305;SDS011;5708;50.660;6.778;2023-05-28T04:02:47;12.82;;;6.53;;
11305;SDS011;5708;50.660;6.778;2023-05-28T04:05:12;15.98;;;6.90;;
11305;SDS011;5708;50.660;6.778;2023-05-28T04:07:37;15.00;;;6.45;;
11305;SDS011;5708;50.660;6.778;2023-05-28T04:10:03;12.68;;;6.22;;
11305;SDS011;5708;50.660;6.778;2023-05-28T04:12:29;12.88;;;6.55;;
11305;SDS011;5708;50.660;6.778;2023-05-28T04:14:54;16.20;;;7.40;;
11305;SDS011;5708;50.660;6.778;2023-05-28T04:17:21;15.85;;;7.28;;
11305;SDS011;5708;50.660;6.778;2023-05-28T04:19:46;14.95;;;7.22;;
11305;SDS011;5708;50.660;6.778;2023-05-28T04:22:11;13.40;;;6.55;;
11305;SDS011;5708;50.660;6.778;2023-05-28T04:24:37;12.23;;;6.50;;
11305;SDS011;5708;50.660;6.778;2023-05-28T04:27:02;13.40;;;6.50;;
11305;SDS011;5708;50.660;6.778;2023-05-28T04:29:28;17.35;;;7.07;;
11305;SDS011;5708;50.660;6.778;2023-05-28T04:31:57;17.27;;;6.85;;
11305;SDS011;5708;50.660;6.778;2023-05-28T04:34:23;14.98;;;7.20;;
11305;SDS011;5708;50.660;6.778;2023-05-28T04:36:49;12.05;;;6.93;;
11305;SDS011;5708;50.660;6.778;2023-05-28T04:39:16;14.95;;;7.25;;
11305;SDS011;5708;50.660;6.778;2023-05-28T04:41:41;12.07;;;6.72;;
11305;SDS011;5708;50.660;6.778;2023-05-28T04:44:08;13.70;;;7.20;;
11305;SDS011;5708;50.660;6.778;2023-05-28T04:46:34;12.63;;;6.30;;
11305;SDS011;5708;50.660;6.778;2023-05-28T04:49:02;13.75;;;6.80;;
11305;SDS011;5708;50.660;6.778;2023-05-28T04:51:28;13.30;;;6.75;;
11305;SDS011;5708;50.660;6.778;2023-05-28T04:53:54;15.93;;;6.85;;
11305;SDS011;5708;50.660;6.778;2023-05-28T04:56:19;16.77;;;6.90;;
11305;SDS011;5708;50.660;6.778;2023-05-28T04:58:45;21.88;;;12.30;;
11305;SDS011;5708;50.660;6.778;2023-05-28T05:01:12;17.60;;;10.00;;
11305;SDS011;5708;50.660;6.778;2023-05-28T05:03:39;16.83;;;7.22;;
11305;SDS011;5708;50.660;6.778;2023-05-28T05:06:05;15.75;;;6.63;;
11305;SDS011;5708;50.660;6.778;2023-05-28T05:08:32;14.95;;;6.32;;
11305;SDS011;5708;50.660;6.778;2023-05-28T05:10:57;12.57;;;5.93;;
11305;SDS011;5708;50.660;6.778;2023-05-28T05:13:23;12.73;;;5.75;;
11305;SDS011;5708;50.660;6.778;2023-05-28T05:15:48;12.50;;;5.55;;
11305;SDS011;5708;50.660;6.778;2023-05-28T05:18:14;18.02;;;6.05;;
11305;SDS011;5708;50.660;6.778;2023-05-28T05:20:39;12.57;;;5.88;;
11305;SDS011;5708;50.660;6.778;2023-05-28T05:23:05;13.55;;;6.70;;
11305;SDS011;5708;50.660;6.778;2023-05-28T05:25:30;11.82;;;5.90;;
11305;SDS011;5708;50.660;6.778;2023-05-28T05:27:55;13.23;;;6.03;;
11305;SDS011;5708;50.660;6.778;2023-05-28T05:30:21;10.52;;;5.70;;
11305;SDS011;5708;50.660;6.778;2023-05-28T05:32:46;12.73;;;6.18;;
11305;SDS011;5708;50.660;6.778;2023-05-28T05:35:12;16.50;;;6.50;;
11305;SDS011;5708;50.660;6.778;2023-05-28T05:37:37;15.25;;;6.30;;
11305;SDS011;5708;50.660;6.778;2023-05-28T05:40:03;13.85;;;6.13;;
11305;SDS011;5708;50.660;6.778;2023-05-28T05:42:30;14.65;;;6.00;;
11305;SDS011;5708;50.660;6.778;2023-05-28T05:44:56;12.23;;;6.07;;
11305;SDS011;5708;50.660;6.778;2023-05-28T05:47:21;11.73;;;6.55;;
11305;SDS011;5708;50.660;6.778;2023-05-28T05:49:46;11.85;;;6.05;;
11305;SDS011;5708;50.660;6.778;2023-05-28T05:52:12;10.40;;;5.93;;
11305;SDS011;5708;50.660;6.778;2023-05-28T05:54:37;14.45;;;5.90;;
11305;SDS011;5708;50.660;6.778;2023-05-28T05:57:02;12.43;;;5.43;;
11305;SDS011;5708;50.660;6.778;2023-05-28T05:59:28;11.80;;;5.40;;
11305;SDS011;5708;50.660;6.778;2023-05-28T06:01:54;14.65;;;5.63;;
11305;SDS011;5708;50.660;6.778;2023-05-28T06:04:19;11.35;;;5.40;;
11305;SDS011;5708;50.660;6.778;2023-05-28T06:06:45;10.25;;;5.10;;
11305;SDS011;5708;50.660;6.778;2023-05-28T06:09:11;15.82;;;5.22;;
11305;SDS011;5708;50.660;6.778;2023-05-28T06:11:36;13.40;;;5.05;;
11305;SDS011;5708;50.660;6.778;2023-05-28T06:14:02;12.30;;;5.47;;
11305;SDS011;5708;50.660;6.778;2023-05-28T06:16:28;12.75;;;4.97;;
11305;SDS011;5708;50.660;6.778;2023-05-28T06:18:53;11.00;;;4.85;;
11305;SDS011;5708;50.660;6.778;2023-05-28T06:21:19;12.23;;;5.50;;
11305;SDS011;5708;50.660;6.778;2023-05-28T06:23:44;12.45;;;4.57;;
11305;SDS011;5708;50.660;6.778;2023-05-28T06:26:10;10.93;;;4.88;;
11305;SDS011;5708;50.660;6.778;2023-05-28T06:28:37;14.82;;;5.00;;
11305;SDS011;5708;50.660;6.778;2023-05-28T06:31:02;12.88;;;5.10;;
11305;SDS011;5708;50.660;6.778;2023-05-28T06:33:28;11.10;;;4.97;;
11305;SDS011;5708;50.660;6.778;2023-05-28T06:35:53;11.63;;;5.10;;
11305;SDS011;5708;50.660;6.778;2023-05-28T06:38:19;11.50;;;4.20;;
11305;SDS011;5708;50.660;6.778;2023-05-28T06:40:44;11.65;;;5.03;;
11305;SDS011;5708;50.660;6.778;2023-05-28T06:43:10;10.63;;;5.03;;
11305;SDS011;5708;50.660;6.778;2023-05-28T06:45:35;11.75;;;5.30;;
11305;SDS011;5708;50.660;6.778;2023-05-28T06:48:00;12.57;;;5.28;;
11305;SDS011;5708;50.660;6.778;2023-05-28T06:50:29;8.93;;;4.70;;
11305;SDS011;5708;50.660;6.778;2023-05-28T06:52:54;11.73;;;5.22;;
11305;SDS011;5708;50.660;6.778;2023-05-28T06:55:20;13.38;;;5.63;;
11305;SDS011;5708;50.660;6.778;2023-05-28T06:57:45;11.18;;;4.80;;
11305;SDS011;5708;50.660;6.778;2023-05-28T07:00:11;15.75;;;5.93;;
11305;SDS011;5708;50.660;6.778;2023-05-28T07:02:39;19.10;;;5.70;;
11305;SDS011;5708;50.660;6.778;2023-05-28T07:05:05;11.93;;;4.80;;
11305;SDS011;5708;50.660;6.778;2023-05-28T07:07:31;14.00;;;5.38;;
11305;SDS011;5708;50.660;6.778;2023-05-28T07:09:57;12.52;;;5.30;;
11305;SDS011;5708;50.660;6.778;2023-05-28T07:12:22;14.30;;;5.35;;
11305;SDS011;5708;50.660;6.778;2023-05-28T07:14:48;9.05;;;4.93;;
11305;SDS011;5708;50.660;6.778;2023-05-28T07:17:13;11.70;;;5.10;;
11305;SDS011;5708;50.660;6.778;2023-05-28T07:19:38;11.57;;;4.60;;
11305;SDS011;5708;50.660;6.778;2023-05-28T07:22:04;13.60;;;4.90;;
11305;SDS011;5708;50.660;6.778;2023-05-28T07:24:30;10.77;;;4.60;;
11305;SDS011;5708;50.660;6.778;2023-05-28T07:26:58;11.77;;;4.75;;
11305;SDS011;5708;50.660;6.778;2023-05-28T07:29:25;13.18;;;4.90;;
11305;SDS011;5708;50.660;6.778;2023-05-28T07:31:51;13.70;;;5.13;;
11305;SDS011;5708;50.660;6.778;2023-05-28T07:34:17;12.60;;;4.63;;
11305;SDS011;5708;50.660;6.778;2023-05-28T07:36:42;11.65;;;4.47;;
11305;SDS011;5708;50.660;6.778;2023-05-28T07:39:08;8.48;;;4.38;;
11305;SDS011;5708;50.660;6.778;2023-05-28T07:41:35;9.88;;;4.68;;
11305;SDS011;5708;50.660;6.778;2023-05-28T07:44:00;11.93;;;4.85;;
11305;SDS011;5708;50.660;6.778;2023-05-28T07:46:26;13.43;;;4.22;;
11305;SDS011;5708;50.660;6.778;2023-05-28T07:48:51;10.77;;;4.35;;
11305;SDS011;5708;50.660;6.778;2023-05-28T07:51:17;8.52;;;4.35;;
11305;SDS011;5708;50.660;6.778;2023-05-28T07:53:42;10.57;;;4.60;;
11305;SDS011;5708;50.660;6.778;2023-05-28T07:56:08;10.23;;;4.15;;
11305;SDS011;5708;50.660;6.778;2023-05-28T07:58:34;9.63;;;3.97;;
11305;SDS011;5708;50.660;6.778;2023-05-28T08:01:00;11.07;;;4.30;;
11305;SDS011;5708;50.660;6.778;2023-05-28T08:03:26;10.90;;;4.30;;
11305;SDS011;5708;50.660;6.778;2023-05-28T08:05:54;9.48;;;4.07;;
11305;SDS011;5708;50.660;6.778;2023-05-28T08:08:20;10.55;;;4.57;;
11305;SDS011;5708;50.660;6.778;2023-05-28T08:10:45;13.02;;;3.95;;
11305;SDS011;5708;50.660;6.778;2023-05-28T08:13:11;12.75;;;4.15;;
11305;SDS011;5708;50.660;6.778;2023-05-28T08:15:36;10.35;;;3.90;;
11305;SDS011;5708;50.660;6.778;2023-05-28T08:18:02;10.07;;;4.43;;
11305;SDS011;5708;50.660;6.778;2023-05-28T08:20:27;9.70;;;3.88;;
11305;SDS011;5708;50.660;6.778;2023-05-28T08:22:54;12.77;;;4.28;;
11305;SDS011;5708;50.660;6.778;2023-05-28T08:25:19;10.52;;;4.00;;
11305;SDS011;5708;50.660;6.778;2023-05-28T08:27:45;12.73;;;3.97;;
11305;SDS011;5708;50.660;6.778;2023-05-28T08:30:11;8.55;;;3.83;;
11305;SDS011;5708;50.660;6.778;2023-05-28T08:32:36;11.60;;;4.25;;
11305;SDS011;5708;50.660;6.778;2023-05-28T08:35:02;11.82;;;4.00;;
11305;SDS011;5708;50.660;6.778;2023-05-28T08:37:28;9.40;;;3.88;;
11305;SDS011;5708;50.660;6.778;2023-05-28T08:39:54;8.68;;;4.13;;
11305;SDS011;5708;50.660;6.778;2023-05-28T08:42:19;9.90;;;3.90;;
11305;SDS011;5708;50.660;6.778;2023-05-28T08:44:44;13.32;;;5.03;;
11305;SDS011;5708;50.660;6.778;2023-05-28T08:47:11;14.88;;;4.30;;
11305;SDS011;5708;50.660;6.778;2023-05-28T08:49:38;9.82;;;4.28;;
11305;SDS011;5708;50.660;6.778;2023-05-28T08:52:25;9.77;;;4.22;;
11305;SDS011;5708;50.660;6.778;2023-05-28T08:54:51;13.30;;;4.53;;
11305;SDS011;5708;50.660;6.778;2023-05-28T08:57:17;12.43;;;4.97;;
11305;SDS011;5708;50.660;6.778;2023-05-28T08:59:43;9.82;;;4.15;;
11305;SDS011;5708;50.660;6.778;2023-05-28T09:02:09;12.48;;;4.63;;
11305;SDS011;5708;50.660;6.778;2023-05-28T09:04:36;9.60;;;4.13;;
11305;SDS011;5708;50.660;6.778;2023-05-28T09:07:01;10.70;;;4.60;;
11305;SDS011;5708;50.660;6.778;2023-05-28T09:09:27;10.25;;;4.18;;
11305;SDS011;5708;50.660;6.778;2023-05-28T09:12:02;11.77;;;4.50;;
11305;SDS011;5708;50.660;6.778;2023-05-28T09:14:30;9.35;;;3.83;;
11305;SDS011;5708;50.660;6.778;2023-05-28T09:17:08;11.45;;;4.28;;
11305;SDS011;5708;50.660;6.778;2023-05-28T09:19:34;10.82;;;4.10;;
11305;SDS011;5708;50.660;6.778;2023-05-28T09:22:00;12.30;;;4.43;;
11305;SDS011;5708;50.660;6.778;2023-05-28T09:24:28;11.52;;;4.13;;
11305;SDS011;5708;50.660;6.778;2023-05-28T09:26:57;10.77;;;4.90;;
11305;SDS011;5708;50.660;6.778;2023-05-28T09:29:24;12.27;;;4.18;;
11305;SDS011;5708;50.660;6.778;2023-05-28T09:31:57;11.57;;;4.93;;
11305;SDS011;5708;50.660;6.778;2023-05-28T09:34:29;9.15;;;4.30;;
11305;SDS011;5708;50.660;6.778;2023-05-28T09:37:04;10.00;;;4.18;;
11305;SDS011;5708;50.660;6.778;2023-05-28T09:39:31;10.80;;;4.40;;
11305;SDS011;5708;50.660;6.778;2023-05-28T09:44:29;9.90;;;4.05;;
11305;SDS011;5708;50.660;6.778;2023-05-28T09:46:56;10.48;;;4.45;;
11305;SDS011;5708;50.660;6.778;2023-05-28T09:49:22;11.75;;;4.57;;
11305;SDS011;5708;50.660;6.778;2023-05-28T09:51:47;11.65;;;4.15;;
11305;SDS011;5708;50.660;6.778;2023-05-28T09:54:16;11.02;;;3.72;;
11305;SDS011;5708;50.660;6.778;2023-05-28T09:56:43;8.50;;;3.58;;
11305;SDS011;5708;50.660;6.778;2023-05-28T09:59:10;10.40;;;3.67;;
11305;SDS011;5708;50.660;6.778;2023-05-28T10:01:43;13.27;;;4.15;;
11305;SDS011;5708;50.660;6.778;2023-05-28T10:04:14;9.60;;;3.78;;
11305;SDS011;5708;50.660;6.778;2023-05-28T10:06:43;11.15;;;4.40;;
11305;SDS011;5708;50.660;6.778;2023-05-28T10:09:10;7.28;;;3.75;;
11305;SDS011;5708;50.660;6.778;2023-05-28T10:11:48;8.88;;;3.80;;
11305;SDS011;5708;50.660;6.778;2023-05-28T10:14:18;12.20;;;4.15;;
11305;SDS011;5708;50.660;6.778;2023-05-28T10:16:44;11.05;;;4.20;;
11305;SDS011;5708;50.660;6.778;2023-05-28T10:19:10;9.13;;;3.95;;
11305;SDS011;5708;50.660;6.778;2023-05-28T10:21:36;10.48;;;4.60;;
11305;SDS011;5708;50.660;6.778;2023-05-28T10:24:04;12.57;;;3.65;;
11305;SDS011;5708;50.660;6.778;2023-05-28T10:26:30;12.27;;;4.18;;
11305;SDS011;5708;50.660;6.778;2023-05-28T10:28:56;10.05;;;4.10;;
11305;SDS011;5708;50.660;6.778;2023-05-28T10:31:22;9.85;;;4.22;;
11305;SDS011;5708;50.660;6.778;2023-05-28T10:33:52;8.23;;;3.67;;
11305;SDS011;5708;50.660;6.778;2023-05-28T10:36:17;10.63;;;4.05;;
11305;SDS011;5708;50.660;6.778;2023-05-28T10:41:09;8.77;;;3.75;;
11305;SDS011;5708;50.660;6.778;2023-05-28T10:46:49;10.20;;;4.20;;
11305;SDS011;5708;50.660;6.778;2023-05-28T10:49:04;12.95;;;3.88;;
11305;SDS011;5708;50.660;6.778;2023-05-28T10:51:50;9.35;;;4.10;;
11305;SDS011;5708;50.660;6.778;2023-05-28T11:02:41;12.43;;;3.85;;
11305;SDS011;5708;50.660;6.778;2023-05-28T11:05:08;9.75;;;4.15;;
11305;SDS011;5708;50.660;6.778;2023-05-28T11:07:40;7.88;;;3.80;;
11305;SDS011;5708;50.660;6.778;2023-05-28T11:10:07;10.02;;;4.10;;
11305;SDS011;5708;50.660;6.778;2023-05-28T11:12:35;8.55;;;4.15;;
11305;SDS011;5708;50.660;6.778;2023-05-28T11:15:02;9.73;;;4.25;;
11305;SDS011;5708;50.660;6.778;2023-05-28T11:17:28;10.52;;;4.20;;
11305;SDS011;5708;50.660;6.778;2023-05-28T11:19:54;6.80;;;3.65;;
11305;SDS011;5708;50.660;6.778;2023-05-28T11:22:20;11.18;;;3.90;;
11305;SDS011;5708;50.660;6.778;2023-05-28T11:25:05;11.52;;;4.53;;
11305;SDS011;5708;50.660;6.778;2023-05-28T11:27:31;7.97;;;3.72;;
11305;SDS011;5708;50.660;6.778;2023-05-28T11:29:59;11.38;;;4.30;;
11305;SDS011;5708;50.660;6.778;2023-05-28T11:32:25;9.15;;;4.22;;
11305;SDS011;5708;50.660;6.778;2023-05-28T11:34:52;9.50;;;4.57;;
11305;SDS011;5708;50.660;6.778;2023-05-28T11:37:26;9.85;;;4.22;;
11305;SDS011;5708;50.660;6.778;2023-05-28T11:39:53;8.13;;;3.70;;
11305;SDS011;5708;50.660;6.778;2023-05-28T11:42:21;8.20;;;4.15;;
11305;SDS011;5708;50.660;6.778;2023-05-28T11:44:48;9.45;;;3.90;;
11305;SDS011;5708;50.660;6.778;2023-05-28T11:47:14;10.52;;;4.20;;
11305;SDS011;5708;50.660;6.778;2023-05-28T11:49:40;8.45;;;3.72;;
11305;SDS011;5708;50.660;6.778;2023-05-28T11:52:13;9.35;;;4.22;;
11305;SDS011;5708;50.660;6.778;2023-05-28T11:54:40;12.75;;;4.35;;
11305;SDS011;5708;50.660;6.778;2023-05-28T11:57:07;12.75;;;4.45;;
11305;SDS011;5708;50.660;6.778;2023-05-28T11:59:33;9.80;;;4.25;;
11305;SDS011;5708;50.660;6.778;2023-05-28T12:02:09;10.05;;;4.00;;
11305;SDS011;5708;50.660;6.778;2023-05-28T12:04:35;9.98;;;4.38;;
11305;SDS011;5708;50.660;6.778;2023-05-28T12:07:00;10.55;;;4.32;;
11305;SDS011;5708;50.660;6.778;2023-05-28T12:09:26;8.07;;;4.00;;
11305;SDS011;5708;50.660;6.778;2023-05-28T12:12:04;7.72;;;4.00;;
11305;SDS011;5708;50.660;6.778;2023-05-28T12:14:36;10.02;;;4.63;;
11305;SDS011;5708;50.660;6.778;2023-05-28T12:17:08;9.75;;;4.60;;
11305;SDS011;5708;50.660;6.778;2023-05-28T12:19:34;9.57;;;4.13;;
11305;SDS011;5708;50.660;6.778;2023-05-28T12:22:00;10.90;;;4.20;;
11305;SDS011;5708;50.660;6.778;2023-05-28T12:24:29;7.78;;;4.07;;
11305;SDS011;5708;50.660;6.778;2023-05-28T12:26:55;10.52;;;4.25;;
11305;SDS011;5708;50.660;6.778;2023-05-28T12:29:20;10.82;;;3.90;;
11305;SDS011;5708;50.660;6.778;2023-05-28T12:31:46;11.35;;;4.40;;
11305;SDS011;5708;50.660;6.778;2023-05-28T12:34:11;8.35;;;4.20;;
11305;SDS011;5708;50.660;6.778;2023-05-28T12:36:37;9.88;;;4.28;;
11305;SDS011;5708;50.660;6.778;2023-05-28T12:39:03;9.73;;;4.18;;
11305;SDS011;5708;50.660;6.778;2023-05-28T12:41:30;10.80;;;4.03;;
11305;SDS011;5708;50.660;6.778;2023-05-28T12:43:55;8.70;;;4.00;;
11305;SDS011;5708;50.660;6.778;2023-05-28T12:46:21;8.85;;;4.30;;
11305;SDS011;5708;50.660;6.778;2023-05-28T12:48:46;11.55;;;4.78;;
11305;SDS011;5708;50.660;6.778;2023-05-28T12:51:11;11.95;;;4.82;;
11305;SDS011;5708;50.660;6.778;2023-05-28T12:53:37;13.52;;;4.93;;
11305;SDS011;5708;50.660;6.778;2023-05-28T12:56:02;10.13;;;4.75;;
11305;SDS011;5708;50.660;6.778;2023-05-28T12:58:28;10.05;;;4.65;;
11305;SDS011;5708;50.660;6.778;2023-05-28T13:00:53;10.07;;;5.03;;
11305;SDS011;5708;50.660;6.778;2023-05-28T13:03:19;10.57;;;4.68;;
11305;SDS011;5708;50.660;6.778;2023-05-28T13:05:44;9.75;;;4.65;;
11305;SDS011;5708;50.660;6.778;2023-05-28T13:08:11;12.02;;;4.65;;
11305;SDS011;5708;50.660;6.778;2023-05-28T13:10:36;9.95;;;4.90;;
11305;SDS011;5708;50.660;6.778;2023-05-28T13:13:01;11.07;;;4.68;;
11305;SDS011;5708;50.660;6.778;2023-05-28T13:15:27;10.00;;;4.70;;
11305;SDS011;5708;50.660;6.778;2023-05-28T13:17:52;11.48;;;4.68;;
11305;SDS011;5708;50.660;6.778;2023-05-28T13:20:18;11.82;;;4.97;;
11305;SDS011;5708;50.660;6.778;2023-05-28T13:22:43;9.52;;;4.30;;
11305;SDS011;5708;50.660;6.778;2023-05-28T13:25:08;8.48;;;4.45;;
11305;SDS011;5708;50.660;6.778;2023-05-28T13:27:34;10.23;;;4.47;;
11305;SDS011;5708;50.660;6.778;2023-05-28T13:30:00;8.70;;;4.13;;
11305;SDS011;5708;50.660;6.778;2023-05-28T13:32:26;8.38;;;4.40;;
11305;SDS011;5708;50.660;6.778;2023-05-28T13:34:52;10.38;;;4.90;;
11305;SDS011;5708;50.660;6.778;2023-05-28T13:37:17;12.02;;;4.32;;
11305;SDS011;5708;50.660;6.778;2023-05-28T13:39:43;8.75;;;4.55;;
11305;SDS011;5708;50.660;6.778;2023-05-28T13:42:08;8.02;;;4.38;;
11305;SDS011;5708;50.660;6.778;2023-05-28T13:44:34;9.60;;;4.50;;
11305;SDS011;5708;50.660;6.778;2023-05-28T13:47:00;8.95;;;4.18;;
11305;SDS011;5708;50.660;6.778;2023-05-28T13:49:26;10.63;;;4.60;;
11305;SDS011;5708;50.660;6.778;2023-05-28T13:51:51;9.50;;;4.70;;
11305;SDS011;5708;50.660;6.778;2023-05-28T13:54:17;9.02;;;4.28;;
11305;SDS011;5708;50.660;6.778;2023-05-28T13:56:42;10.52;;;4.47;;
11305;SDS011;5708;50.660;6.778;2023-05-28T13:59:09;8.10;;;3.90;;
11305;SDS011;5708;50.660;6.778;2023-05-28T14:01:34;9.65;;;4.55;;
11305;SDS011;5708;50.660;6.778;2023-05-28T14:04:01;10.27;;;4.78;;
11305;SDS011;5708;50.660;6.778;2023-05-28T14:06:26;10.30;;;4.70;;
11305;SDS011;5708;50.660;6.778;2023-05-28T14:08:52;9.85;;;4.22;;
11305;SDS011;5708;50.660;6.778;2023-05-28T14:11:17;9.35;;;4.60;;
11305;SDS011;5708;50.660;6.778;2023-05-28T14:13:43;10.02;;;4.65;;
11305;SDS011;5708;50.660;6.778;2023-05-28T14:16:09;10.15;;;4.90;;
11305;SDS011;5708;50.660;6.778;2023-05-28T14:18:34;8.43;;;4.38;;
11305;SDS011;5708;50.660;6.778;2023-05-28T14:20:59;11.93;;;4.70;;
11305;SDS011;5708;50.660;6.778;2023-05-28T14:23:25;10.32;;;5.10;;
11305;SDS011;5708;50.660;6.778;2023-05-28T14:25:50;10.00;;;4.75;;
11305;SDS011;5708;50.660;6.778;2023-05-28T14:28:16;11.38;;;4.32;;
11305;SDS011;5708;50.660;6.778;2023-05-28T14:30:42;8.77;;;4.60;;
11305;SDS011;5708;50.660;6.778;2023-05-28T14:33:08;9.65;;;4.53;;
11305;SDS011;5708;50.660;6.778;2023-05-28T14:35:34;8.73;;;4.28;;
11305;SDS011;5708;50.660;6.778;2023-05-28T14:38:00;9.50;;;4.68;;
11305;SDS011;5708;50.660;6.778;2023-05-28T14:40:25;9.05;;;4.85;;
11305;SDS011;5708;50.660;6.778;2023-05-28T14:42:51;11.23;;;4.70;;
11305;SDS011;5708;50.660;6.778;2023-05-28T14:45:16;8.95;;;4.05;;
11305;SDS011;5708;50.660;6.778;2023-05-28T14:47:42;7.95;;;3.63;;
11305;SDS011;5708;50.660;6.778;2023-05-28T14:50:07;8.82;;;4.32;;
11305;SDS011;5708;50.660;6.778;2023-05-28T14:52:33;8.23;;;4.05;;
11305;SDS011;5708;50.660;6.778;2023-05-28T14:54:59;8.98;;;3.85;;
11305;SDS011;5708;50.660;6.778;2023-05-28T14:57:25;9.45;;;4.10;;
11305;SDS011;5708;50.660;6.778;2023-05-28T14:59:52;9.40;;;4.55;;
11305;SDS011;5708;50.660;6.778;2023-05-28T15:02:18;8.75;;;3.80;;